createdAt,value
2022-10-24T00:00:02.778Z,99.99
2022-10-24T00:01:02.726Z,99.99
2022-10-24T00:02:02.717Z,99.99
2022-10-24T00:03:02.754Z,99.99
2022-10-24T00:04:02.769Z,99.99
2022-10-24T00:05:02.693Z,99.99
2022-10-24T00:06:02.674Z,99.99
2022-10-24T00:07:02.663Z,99.99
2022-10-24T00:08:02.673Z,99.99
2022-10-24T00:09:02.644Z,99.99
2022-10-24T00:10:02.632Z,99.99
2022-10-24T00:11:02.631Z,99.99
2022-10-24T00:12:02.622Z,99.99
2022-10-24T00:13:02.619Z,99.99
2022-10-24T00:14:02.608Z,99.99
2022-10-24T00:15:02.604Z,99.99
2022-10-24T00:16:02.567Z,99.99
2022-10-24T00:17:02.556Z,99.99
2022-10-24T00:18:02.567Z,99.99
2022-10-24T00:19:02.537Z,99.99
2022-10-24T00:20:02.525Z,99.99
2022-10-24T00:21:02.560Z,99.99
2022-10-24T00:22:02.508Z,99.99
2022-10-24T00:23:02.533Z,99.99
2022-10-24T00:24:02.474Z,99.99
2022-10-24T00:25:02.463Z,99.99
2022-10-24T00:26:02.453Z,99.99
2022-10-24T00:27:02.446Z,99.99
2022-10-24T00:28:02.469Z,99.99
2022-10-24T00:29:02.452Z,99.99
2022-10-24T00:30:02.427Z,99.99
2022-10-24T00:31:02.404Z,99.99
2022-10-24T00:32:02.419Z,99.99
2022-10-24T00:33:02.383Z,99.99
2022-10-24T00:34:02.389Z,99.99
2022-10-24T00:35:02.402Z,99.99
2022-10-24T00:36:02.367Z,99.99
2022-10-24T00:37:02.338Z,99.99
2022-10-24T00:38:02.336Z,99.99
2022-10-24T00:39:02.315Z,99.99
2022-10-24T00:40:02.303Z,99.99
2022-10-24T00:41:02.358Z,99.99
2022-10-24T00:42:02.286Z,99.99
2022-10-24T00:43:02.275Z,99.99
2022-10-24T00:44:02.279Z,99.99
2022-10-24T00:45:02.256Z,99.99
2022-10-24T00:46:02.226Z,99.99
2022-10-24T00:47:02.227Z,99.99
2022-10-24T00:48:02.237Z,99.99
2022-10-24T00:49:02.210Z,99.99
2022-10-24T00:50:02.191Z,99.99
2022-10-24T00:51:02.183Z,99.99
2022-10-24T00:52:02.195Z,99.99
2022-10-24T00:53:02.155Z,99.99
2022-10-24T00:54:02.179Z,99.99
2022-10-24T00:55:02.180Z,99.99
2022-10-24T00:56:02.140Z,99.99
2022-10-24T00:57:02.139Z,99.99
2022-10-24T00:58:02.130Z,99.99
2022-10-24T00:59:02.093Z,99.99
2022-10-24T01:00:02.106Z,99.99
2022-10-24T01:01:02.213Z,99.99
2022-10-24T01:02:02.122Z,99.99
2022-10-24T01:03:02.048Z,99.99
2022-10-24T01:04:02.035Z,99.99
2022-10-24T01:05:02.022Z,99.99
2022-10-24T01:06:02.006Z,99.99
2022-10-24T01:07:01.995Z,99.99
2022-10-24T01:08:02.043Z,99.99
2022-10-24T01:09:01.980Z,99.99
2022-10-24T01:10:01.968Z,99.99
2022-10-24T01:11:01.969Z,99.99
2022-10-24T01:12:01.942Z,99.99
2022-10-24T01:13:01.937Z,99.99
2022-10-24T01:14:01.957Z,99.99
2022-10-24T01:15:01.978Z,99.99
2022-10-24T01:16:01.928Z,99.99
2022-10-24T01:17:01.886Z,99.99
2022-10-24T01:18:01.895Z,99.99
2022-10-24T01:19:01.863Z,99.99
2022-10-24T01:20:01.886Z,99.99
2022-10-24T01:21:01.851Z,99.99
2022-10-24T01:22:01.859Z,99.99
2022-10-24T01:23:01.831Z,99.99
2022-10-24T01:24:01.862Z,99.99
2022-10-24T01:25:01.825Z,99.99
2022-10-24T01:26:01.808Z,99.99
2022-10-24T01:27:01.864Z,99.99
2022-10-24T01:28:01.787Z,99.99
2022-10-24T01:29:01.766Z,99.99
2022-10-24T01:30:01.825Z,99.99
2022-10-24T01:31:01.746Z,99.99
2022-10-24T01:32:01.773Z,99.99
2022-10-24T01:33:01.721Z,99.99
2022-10-24T01:34:01.711Z,99.99
2022-10-24T01:35:01.731Z,99.99
2022-10-24T01:36:01.689Z,99.99
2022-10-24T01:37:01.694Z,99.99
2022-10-24T01:38:01.667Z,99.99
2022-10-24T01:39:01.655Z,99.99
2022-10-24T01:40:01.653Z,99.99
2022-10-24T01:41:01.646Z,99.99
2022-10-24T01:42:01.667Z,99.99
2022-10-24T01:43:01.611Z,99.99
2022-10-24T01:44:01.588Z,99.99
2022-10-24T01:45:01.602Z,99.99
2022-10-24T01:46:01.592Z,99.99
2022-10-24T01:47:01.590Z,99.99
2022-10-24T01:48:01.650Z,99.99
2022-10-24T01:49:01.552Z,99.99
2022-10-24T01:50:01.541Z,99.99
2022-10-24T01:51:01.519Z,99.99
2022-10-24T01:52:01.610Z,99.99
2022-10-24T01:53:01.516Z,99.99
2022-10-24T01:54:01.494Z,99.99
2022-10-24T01:55:01.468Z,99.99
2022-10-24T01:56:01.463Z,99.99
2022-10-24T01:57:01.515Z,99.99
2022-10-24T01:58:01.471Z,99.99
2022-10-24T01:59:01.434Z,99.99
2022-10-24T02:00:01.422Z,99.99
2022-10-24T02:01:01.502Z,99.99
2022-10-24T02:02:01.418Z,99.99
2022-10-24T02:03:01.421Z,99.99
2022-10-24T02:04:01.425Z,99.99
2022-10-24T02:05:01.375Z,99.99
2022-10-24T02:06:01.368Z,99.99
2022-10-24T02:07:01.336Z,99.99
2022-10-24T02:08:01.365Z,99.99
2022-10-24T02:09:01.453Z,99.99
2022-10-24T02:10:01.308Z,99.99
2022-10-24T02:11:01.310Z,99.99
2022-10-24T02:12:01.346Z,99.99
2022-10-24T02:13:01.277Z,99.99
2022-10-24T02:14:01.294Z,99.99
2022-10-24T02:15:01.254Z,99.99
2022-10-24T02:16:01.325Z,99.99
2022-10-24T02:17:01.244Z,99.99
2022-10-24T02:18:01.221Z,99.99
2022-10-24T02:19:01.249Z,99.99
2022-10-24T02:20:01.229Z,99.99
2022-10-24T02:21:01.248Z,99.99
2022-10-24T02:22:01.186Z,99.99
2022-10-24T02:23:01.179Z,99.99
2022-10-24T02:24:01.200Z,99.99
2022-10-24T02:25:01.150Z,99.99
2022-10-24T02:26:01.147Z,99.99
2022-10-24T02:27:01.207Z,99.99
2022-10-24T02:28:01.234Z,99.99
2022-10-24T02:29:01.142Z,99.99
2022-10-24T02:30:01.155Z,99.99
2022-10-24T02:31:01.254Z,99.99
2022-10-24T02:32:01.207Z,99.99
2022-10-24T02:33:01.089Z,99.99
2022-10-24T02:34:01.171Z,99.99
2022-10-24T02:35:01.077Z,99.99
2022-10-24T02:36:01.038Z,99.99
2022-10-24T02:37:01.101Z,99.99
2022-10-24T02:38:01.015Z,99.99
2022-10-24T02:39:00.994Z,99.99
2022-10-24T02:40:00.997Z,99.99
2022-10-24T02:41:00.995Z,99.99
2022-10-24T02:42:00.962Z,99.99
2022-10-24T02:43:00.963Z,99.99
2022-10-24T02:44:00.943Z,99.99
2022-10-24T02:45:00.930Z,99.99
2022-10-24T02:46:00.922Z,99.99
2022-10-24T02:47:00.944Z,99.99
2022-10-24T02:48:00.934Z,99.99
2022-10-24T02:49:00.892Z,99.99
2022-10-24T02:50:00.884Z,99.99
2022-10-24T02:51:00.896Z,99.99
2022-10-24T02:52:00.890Z,99.99
2022-10-24T02:53:00.855Z,99.99
2022-10-24T02:54:00.822Z,99.99
2022-10-24T02:55:00.832Z,99.99
2022-10-24T02:56:00.812Z,99.99
2022-10-24T02:57:00.804Z,99.99
2022-10-24T02:58:00.785Z,99.99
2022-10-24T02:59:00.861Z,99.99
2022-10-24T03:00:00.778Z,99.99
2022-10-24T03:01:00.880Z,99.99
2022-10-24T03:02:00.741Z,99.99
2022-10-24T03:03:00.749Z,99.99
2022-10-24T03:04:00.743Z,99.99
2022-10-24T03:05:00.713Z,99.99
2022-10-24T03:06:00.691Z,99.99
2022-10-24T03:07:00.713Z,99.99
2022-10-24T03:08:00.710Z,99.99
2022-10-24T03:09:00.673Z,99.99
2022-10-24T03:10:00.666Z,99.99
2022-10-24T03:11:00.674Z,99.99
2022-10-24T03:12:00.653Z,99.99
2022-10-24T03:13:00.624Z,99.99
2022-10-24T03:14:00.628Z,99.99
2022-10-24T03:15:00.596Z,99.99
2022-10-24T03:16:00.584Z,99.99
2022-10-24T03:17:00.622Z,99.99
2022-10-24T03:18:00.555Z,99.99
2022-10-24T03:19:00.574Z,99.99
2022-10-24T03:20:00.570Z,99.99
2022-10-24T03:21:00.539Z,99.99
2022-10-24T03:22:00.526Z,99.99
2022-10-24T03:23:00.519Z,99.99
2022-10-24T03:24:00.627Z,99.99
2022-10-24T03:25:00.510Z,99.99
2022-10-24T03:26:00.489Z,99.99
2022-10-24T03:27:00.467Z,99.99
2022-10-24T03:28:00.464Z,99.99
2022-10-24T03:29:00.446Z,99.99
2022-10-24T03:30:00.496Z,99.99
2022-10-24T03:31:00.427Z,99.99
2022-10-24T03:32:00.445Z,99.99
2022-10-24T03:33:00.422Z,99.99
2022-10-24T03:34:00.408Z,99.99
2022-10-24T03:35:00.390Z,99.99
2022-10-24T03:36:00.399Z,99.99
2022-10-24T03:37:00.413Z,99.99
2022-10-24T03:38:00.351Z,99.99
2022-10-24T03:39:00.335Z,99.99
2022-10-24T03:40:00.367Z,99.99
2022-10-24T03:41:00.327Z,99.99
2022-10-24T03:42:00.306Z,99.99
2022-10-24T03:43:00.337Z,99.99
2022-10-24T03:44:00.288Z,99.99
2022-10-24T03:45:00.277Z,99.99
2022-10-24T03:46:00.315Z,99.99
2022-10-24T03:47:00.264Z,99.99
2022-10-24T03:48:00.263Z,99.99
2022-10-24T03:50:00.258Z,99.99
2022-10-24T03:51:00.873Z,99.99
2022-10-24T03:52:00.239Z,99.99
2022-10-24T03:53:00.194Z,99.99
2022-10-24T03:54:00.185Z,99.99
2022-10-24T03:55:00.165Z,99.99
2022-10-24T03:56:00.186Z,99.99
2022-10-24T03:57:00.168Z,99.99
2022-10-24T03:58:00.266Z,99.99
2022-10-24T03:59:00.126Z,99.99
2022-10-24T04:00:00.124Z,99.99
2022-10-24T04:01:00.282Z,99.99
2022-10-24T04:02:00.166Z,99.99
2022-10-24T04:03:00.103Z,99.99
2022-10-24T04:04:00.078Z,99.99
2022-10-24T04:05:00.075Z,99.99
2022-10-24T04:06:00.089Z,99.99
2022-10-24T04:07:00.033Z,99.99
2022-10-24T04:08:00.034Z,99.99
2022-10-24T04:09:00.012Z,99.99
2022-10-24T04:09:59.998Z,99.99
2022-10-24T04:10:59.995Z,99.99
2022-10-24T04:12:00.002Z,99.99
2022-10-24T04:12:59.979Z,99.99
2022-10-24T04:13:59.956Z,99.99
2022-10-24T04:15:02.585Z,99.99
2022-10-24T04:15:59.929Z,99.99
2022-10-24T04:16:59.910Z,99.99
2022-10-24T04:17:59.912Z,99.99
2022-10-24T04:18:59.925Z,99.99
2022-10-24T04:19:59.908Z,99.99
2022-10-24T04:20:59.891Z,99.99
2022-10-24T04:21:59.867Z,99.99
2022-10-24T04:23:02.309Z,99.99
2022-10-24T04:23:59.837Z,99.99
2022-10-24T04:24:59.848Z,99.99
2022-10-24T04:25:59.848Z,99.99
2022-10-24T04:26:59.833Z,99.99
2022-10-24T04:27:59.816Z,99.99
2022-10-24T04:28:59.786Z,99.99
2022-10-24T04:29:59.780Z,99.99
2022-10-24T04:30:59.790Z,99.99
2022-10-24T04:31:59.768Z,99.99
2022-10-24T04:32:59.755Z,99.99
2022-10-24T04:33:59.745Z,99.99
2022-10-24T04:34:59.730Z,99.99
2022-10-24T04:35:59.707Z,99.99
2022-10-24T04:36:59.720Z,99.99
2022-10-24T04:37:59.707Z,99.99
2022-10-24T04:39:59.679Z,99.99
2022-10-24T04:40:59.890Z,99.99
2022-10-24T04:41:59.653Z,99.99
2022-10-24T04:42:59.648Z,99.99
2022-10-24T04:43:59.641Z,99.99
2022-10-24T04:44:59.625Z,99.99
2022-10-24T04:45:59.607Z,99.99
2022-10-24T04:46:59.631Z,99.99
2022-10-24T04:47:59.577Z,99.99
2022-10-24T04:48:59.608Z,99.99
2022-10-24T04:49:59.555Z,99.99
2022-10-24T04:50:59.563Z,99.99
2022-10-24T04:51:59.645Z,99.99
2022-10-24T04:52:59.529Z,99.99
2022-10-24T04:53:59.543Z,99.99
2022-10-24T04:54:59.525Z,99.99
2022-10-24T04:55:59.496Z,99.99
2022-10-24T04:56:59.508Z,99.99
2022-10-24T04:57:59.537Z,99.99
2022-10-24T04:58:59.468Z,99.99
2022-10-24T04:59:59.490Z,99.99
2022-10-24T05:00:59.508Z,99.99
2022-10-24T05:01:59.538Z,99.99
2022-10-24T05:02:59.487Z,99.99
2022-10-24T05:03:59.429Z,99.99
2022-10-24T05:04:59.484Z,99.99
2022-10-24T05:05:59.389Z,99.99
2022-10-24T05:06:59.372Z,99.99
2022-10-24T05:07:59.412Z,99.99
2022-10-24T05:08:59.368Z,99.99
2022-10-24T05:09:59.346Z,99.99
2022-10-24T05:10:59.360Z,99.99
2022-10-24T05:11:59.323Z,99.99
2022-10-24T05:12:59.304Z,99.99
2022-10-24T05:13:59.313Z,99.99
2022-10-24T05:14:59.282Z,99.99
2022-10-24T05:15:59.279Z,99.99
2022-10-24T05:16:59.303Z,99.99
2022-10-24T05:17:59.249Z,99.99
2022-10-24T05:18:59.245Z,99.99
2022-10-24T05:19:59.221Z,99.99
2022-10-24T05:20:59.246Z,99.99
2022-10-24T05:21:59.205Z,99.99
2022-10-24T05:22:59.208Z,99.99
2022-10-24T05:23:59.192Z,99.99
2022-10-24T05:24:59.201Z,99.99
2022-10-24T05:25:59.179Z,99.99
2022-10-24T05:26:59.155Z,99.99
2022-10-24T05:27:59.144Z,99.99
2022-10-24T05:28:59.165Z,99.99
2022-10-24T05:29:59.112Z,99.99
2022-10-24T05:30:59.108Z,99.99
2022-10-24T05:31:59.112Z,99.99
2022-10-24T05:32:59.109Z,99.99
2022-10-24T05:33:59.081Z,99.99
2022-10-24T05:34:59.094Z,99.99
2022-10-24T05:35:59.078Z,99.99
2022-10-24T05:36:59.049Z,99.99
2022-10-24T05:37:59.044Z,99.99
2022-10-24T05:38:59.041Z,99.99
2022-10-24T05:39:59.034Z,99.99
2022-10-24T05:40:59.020Z,99.99
2022-10-24T05:41:58.978Z,99.99
2022-10-24T05:42:58.987Z,99.99
2022-10-24T05:43:59.014Z,99.99
2022-10-24T05:44:58.958Z,99.99
2022-10-24T05:45:58.957Z,99.99
2022-10-24T05:46:58.952Z,99.99
2022-10-24T05:47:58.960Z,99.99
2022-10-24T05:48:58.952Z,99.99
2022-10-24T05:49:58.931Z,99.99
2022-10-24T05:50:58.900Z,99.99
2022-10-24T05:51:58.882Z,99.99
2022-10-24T05:52:58.866Z,99.99
2022-10-24T05:53:58.983Z,99.99
2022-10-24T05:55:06.704Z,99.99
2022-10-24T05:57:09.575Z,99.99
2022-10-24T05:58:09.536Z,99.99
2022-10-24T05:59:09.515Z,99.99
2022-10-24T06:00:09.528Z,99.99
2022-10-24T06:01:09.536Z,99.99
2022-10-24T06:02:09.608Z,99.99
2022-10-24T06:03:09.472Z,99.99
2022-10-24T06:04:12.822Z,99.99
2022-10-24T06:05:09.430Z,99.99
2022-10-24T06:06:09.476Z,99.99
2022-10-24T06:07:09.412Z,99.99
2022-10-24T06:08:09.451Z,99.99
2022-10-24T06:09:09.391Z,99.99
2022-10-24T06:10:09.421Z,99.99
2022-10-24T06:11:09.450Z,99.99
2022-10-24T06:12:09.402Z,99.99
2022-10-24T06:13:09.479Z,99.99
2022-10-24T06:14:09.423Z,99.99
2022-10-24T06:15:09.368Z,99.99
2022-10-24T06:16:09.356Z,99.99
2022-10-24T06:17:09.370Z,99.99
2022-10-24T06:18:09.366Z,99.99
2022-10-24T06:19:09.359Z,99.99
2022-10-24T06:20:09.309Z,99.99
2022-10-24T06:21:09.264Z,99.99
2022-10-24T06:22:09.281Z,99.99
2022-10-24T06:23:09.317Z,99.99
2022-10-24T06:24:09.312Z,99.99
2022-10-24T06:25:09.251Z,99.99
2022-10-24T06:26:09.270Z,99.99
2022-10-24T06:27:09.298Z,99.99
2022-10-24T06:29:09.168Z,99.99
2022-10-24T06:30:09.166Z,99.99
2022-10-24T06:31:09.165Z,99.99
2022-10-24T06:32:09.184Z,99.99
2022-10-24T06:33:09.207Z,99.99
2022-10-24T06:34:09.225Z,99.99
2022-10-24T06:35:09.178Z,99.99
2022-10-24T06:36:09.093Z,99.99
2022-10-24T06:37:16.754Z,99.99
2022-10-24T06:38:09.125Z,99.99
2022-10-24T06:39:09.134Z,99.99
2022-10-24T06:40:09.063Z,99.99
2022-10-24T06:41:09.064Z,99.99
2022-10-24T06:42:09.044Z,99.99
2022-10-24T06:43:09.004Z,99.99
2022-10-24T06:44:11.099Z,99.99
2022-10-24T06:45:09.023Z,99.99
2022-10-24T06:46:08.978Z,99.99
2022-10-24T06:47:09.003Z,99.99
2022-10-24T06:48:08.954Z,99.99
2022-10-24T06:49:08.951Z,99.99
2022-10-24T06:50:08.973Z,99.99
2022-10-24T06:51:08.943Z,99.99
2022-10-24T06:52:08.945Z,99.99
2022-10-24T06:53:09.031Z,99.99
2022-10-24T06:54:08.887Z,99.99
2022-10-24T06:55:08.872Z,99.99
2022-10-24T06:56:08.863Z,99.99
2022-10-24T06:57:08.859Z,99.99
2022-10-24T06:58:08.857Z,99.99
2022-10-24T06:59:08.847Z,99.99
2022-10-24T07:00:08.860Z,99.99
2022-10-24T07:01:08.955Z,99.99
2022-10-24T07:02:08.909Z,99.99
2022-10-24T07:03:08.806Z,99.99
2022-10-24T07:04:08.814Z,99.99
2022-10-24T07:05:08.821Z,99.99
2022-10-24T07:06:08.847Z,99.99
2022-10-24T07:07:08.777Z,99.99
2022-10-24T07:08:08.773Z,99.99
2022-10-24T07:09:11.531Z,99.99
2022-10-24T07:10:09.735Z,99.99
2022-10-24T07:11:08.735Z,99.99
2022-10-24T07:12:08.778Z,99.99
2022-10-24T07:13:08.689Z,99.99
2022-10-24T07:14:09.257Z,99.99
2022-10-24T07:15:08.690Z,99.99
2022-10-24T07:16:08.648Z,99.99
2022-10-24T07:17:08.635Z,99.99
2022-10-24T07:18:08.623Z,99.99
2022-10-24T07:19:08.622Z,99.99
2022-10-24T07:20:08.634Z,99.99
2022-10-24T07:21:08.608Z,99.99
2022-10-24T07:22:08.600Z,99.99
2022-10-24T07:23:08.594Z,99.99
2022-10-24T07:24:08.575Z,99.99
2022-10-24T07:25:08.572Z,99.99
2022-10-24T07:26:08.563Z,99.99
2022-10-24T07:27:08.539Z,99.99
2022-10-24T07:28:08.532Z,99.99
2022-10-24T07:29:08.535Z,99.99
2022-10-24T07:30:08.496Z,99.99
2022-10-24T07:31:08.500Z,99.99
2022-10-24T07:32:08.487Z,99.99
2022-10-24T07:33:08.472Z,99.99
2022-10-24T07:34:08.474Z,99.99
2022-10-24T07:35:08.449Z,99.99
2022-10-24T07:36:08.440Z,99.99
2022-10-24T07:37:08.426Z,99.99
2022-10-24T07:38:08.407Z,99.99
2022-10-24T07:39:08.442Z,99.99
2022-10-24T07:40:08.396Z,99.99
2022-10-24T07:41:08.374Z,99.99
2022-10-24T07:42:08.382Z,99.99
2022-10-24T07:43:08.373Z,99.99
2022-10-24T07:44:08.374Z,99.99
2022-10-24T07:45:08.348Z,99.99
2022-10-24T07:46:08.350Z,99.99
2022-10-24T07:47:08.336Z,99.99
2022-10-24T07:48:08.313Z,99.99
2022-10-24T07:49:08.310Z,99.99
2022-10-24T07:50:08.299Z,99.99
2022-10-24T07:51:08.273Z,99.99
2022-10-24T07:52:08.263Z,99.99
2022-10-24T07:53:08.249Z,99.99
2022-10-24T07:54:08.322Z,99.99
2022-10-24T07:55:08.262Z,99.99
2022-10-24T07:56:08.226Z,99.99
2022-10-24T07:57:08.230Z,99.99
2022-10-24T07:58:08.209Z,99.99
2022-10-24T07:59:09.482Z,99.99
2022-10-24T08:00:09.192Z,99.72
2022-10-24T08:01:08.230Z,99.72
2022-10-24T08:02:08.151Z,99.77
2022-10-24T08:03:08.167Z,99.72
2022-10-24T08:04:08.131Z,99.98
2022-10-24T08:05:08.120Z,99.57
2022-10-24T08:06:08.120Z,99.27
2022-10-24T08:07:08.121Z,99.27
2022-10-24T08:08:38.412Z,99.47
2022-10-24T08:09:09.095Z,99.07
2022-10-24T08:10:08.068Z,99.47
2022-10-24T08:11:08.072Z,99.12
2022-10-24T08:12:08.046Z,98.82
2022-10-24T08:13:11.522Z,99.02
2022-10-24T08:14:09.037Z,98.71
2022-10-24T08:15:08.026Z,99.22
2022-10-24T08:16:08.012Z,98.01
2022-10-24T08:17:07.997Z,98.31
2022-10-24T08:18:07.981Z,98.57
2022-10-24T08:19:07.975Z,98.07
2022-10-24T08:20:07.985Z,97.96
2022-10-24T08:21:07.944Z,97.76
2022-10-24T08:22:07.940Z,97.66
2022-10-24T08:23:07.923Z,97.86
2022-10-24T08:24:07.918Z,97.41
2022-10-24T08:25:07.909Z,97.61
2022-10-24T08:26:07.918Z,97.66
2022-10-24T08:27:07.898Z,97.31
2022-10-24T08:28:09.134Z,96.30
2022-10-24T08:29:07.864Z,96.80
2022-10-24T08:30:07.857Z,96.60
2022-10-24T08:31:07.847Z,96.56
2022-10-24T08:32:07.848Z,96.36
2022-10-24T08:33:07.811Z,96.05
2022-10-24T08:34:07.818Z,95.85
2022-10-24T08:35:07.804Z,96.86
2022-10-24T08:36:07.784Z,96.05
2022-10-24T08:37:07.771Z,95.95
2022-10-24T08:38:07.777Z,95.65
2022-10-24T08:39:07.772Z,95.65
2022-10-24T08:40:07.751Z,95.35
2022-10-24T08:41:07.747Z,95.55
2022-10-24T08:42:07.723Z,95.95
2022-10-24T08:43:07.727Z,94.64
2022-10-24T08:44:07.718Z,95.04
2022-10-24T08:45:07.699Z,95.25
2022-10-24T08:46:07.683Z,95.00
2022-10-24T08:47:07.663Z,94.84
2022-10-24T08:48:07.654Z,95.30
2022-10-24T08:49:07.645Z,94.80
2022-10-24T08:50:07.642Z,94.64
2022-10-24T08:51:07.631Z,94.49
2022-10-24T08:52:07.626Z,94.39
2022-10-24T08:53:07.606Z,94.29
2022-10-24T08:54:07.600Z,93.79
2022-10-24T08:55:09.111Z,94.29
2022-10-24T08:56:07.574Z,94.29
2022-10-24T08:57:07.558Z,94.39
2022-10-24T08:58:07.575Z,94.49
2022-10-24T08:59:07.562Z,94.70
2022-10-24T09:00:07.530Z,94.39
2022-10-24T09:01:07.632Z,93.65
2022-10-24T09:02:07.989Z,94.05
2022-10-24T09:03:07.499Z,93.54
2022-10-24T09:04:07.519Z,93.85
2022-10-24T09:05:07.477Z,93.74
2022-10-24T09:06:07.472Z,93.44
2022-10-24T09:07:07.482Z,92.69
2022-10-24T09:08:07.449Z,92.54
2022-10-24T09:09:07.436Z,93.04
2022-10-24T09:10:07.457Z,91.73
2022-10-24T09:11:07.414Z,92.13
2022-10-24T09:12:07.433Z,91.99
2022-10-24T09:13:07.406Z,91.69
2022-10-24T09:14:07.378Z,91.69
2022-10-24T09:15:07.388Z,91.89
2022-10-24T09:16:07.370Z,91.58
2022-10-24T09:17:07.376Z,91.89
2022-10-24T09:18:07.342Z,91.58
2022-10-24T09:19:07.326Z,91.69
2022-10-24T09:20:07.330Z,91.49
2022-10-24T09:21:07.321Z,91.28
2022-10-24T09:22:07.293Z,91.49
2022-10-24T09:23:07.296Z,90.98
2022-10-24T09:24:07.274Z,91.28
2022-10-24T09:25:07.262Z,91.18
2022-10-24T09:26:07.277Z,90.88
2022-10-24T09:27:07.258Z,90.84
2022-10-24T09:28:07.223Z,91.04
2022-10-24T09:29:07.236Z,91.04
2022-10-24T09:30:07.202Z,91.08
2022-10-24T09:31:07.235Z,90.84
2022-10-24T09:32:07.183Z,91.24
2022-10-24T09:33:07.179Z,90.73
2022-10-24T09:34:07.166Z,90.89
2022-10-24T09:35:07.169Z,90.79
2022-10-24T09:36:07.152Z,90.09
2022-10-24T09:37:07.143Z,90.09
2022-10-24T09:38:07.123Z,90.39
2022-10-24T09:39:07.111Z,90.49
2022-10-24T09:40:07.099Z,90.39
2022-10-24T09:41:07.146Z,90.29
2022-10-24T09:42:07.074Z,90.29
2022-10-24T09:43:07.081Z,89.99
2022-10-24T09:44:07.057Z,90.49
2022-10-24T09:45:07.050Z,89.39
2022-10-24T09:46:07.032Z,89.48
2022-10-24T09:47:07.148Z,89.59
2022-10-24T09:48:07.006Z,89.44
2022-10-24T09:49:07.039Z,90.15
2022-10-24T09:50:06.989Z,89.44
2022-10-24T09:51:06.986Z,89.39
2022-10-24T09:52:06.968Z,89.54
2022-10-24T09:53:06.964Z,89.69
2022-10-24T09:54:06.956Z,89.79
2022-10-24T09:55:06.943Z,89.79
2022-10-24T09:56:06.922Z,89.59
2022-10-24T09:57:07.010Z,89.39
2022-10-24T09:58:06.923Z,89.18
2022-10-24T09:59:06.913Z,89.39
2022-10-24T10:00:06.881Z,89.43
2022-10-24T10:01:07.133Z,89.23
2022-10-24T10:02:07.055Z,89.08
2022-10-24T10:03:06.876Z,89.03
2022-10-24T10:04:10.064Z,88.78
2022-10-24T10:05:06.851Z,88.68
2022-10-24T10:06:06.821Z,89.24
2022-10-24T10:07:06.813Z,88.64
2022-10-24T10:08:06.815Z,88.68
2022-10-24T10:09:06.792Z,88.84
2022-10-24T10:10:06.785Z,88.43
2022-10-24T10:11:06.790Z,88.64
2022-10-24T10:12:06.763Z,88.43
2022-10-24T10:13:06.755Z,88.84
2022-10-24T10:14:06.746Z,88.74
2022-10-24T10:15:06.732Z,88.68
2022-10-24T10:16:06.741Z,88.74
2022-10-24T10:17:06.712Z,88.23
2022-10-24T10:18:06.707Z,88.74
2022-10-24T10:19:06.804Z,88.23
2022-10-24T10:20:06.672Z,88.43
2022-10-24T10:21:06.679Z,88.13
2022-10-24T10:22:06.666Z,88.09
2022-10-24T10:23:06.647Z,88.09
2022-10-24T10:24:06.653Z,87.08
2022-10-24T10:25:06.675Z,87.39
2022-10-24T10:26:06.633Z,87.29
2022-10-24T10:27:06.627Z,87.19
2022-10-24T10:28:06.602Z,87.19
2022-10-24T10:29:06.585Z,87.49
2022-10-24T10:30:06.592Z,87.19
2022-10-24T10:31:06.567Z,87.39
2022-10-24T10:32:06.571Z,87.19
2022-10-24T10:33:06.569Z,86.79
2022-10-24T10:34:06.543Z,87.19
2022-10-24T10:35:06.530Z,87.19
2022-10-24T10:36:06.523Z,86.99
2022-10-24T10:37:06.518Z,86.88
2022-10-24T10:38:06.488Z,86.99
2022-10-24T10:39:06.503Z,86.79
2022-10-24T10:40:06.462Z,86.54
2022-10-24T10:41:06.460Z,86.88
2022-10-24T10:42:06.490Z,86.28
2022-10-24T10:43:06.443Z,86.28
2022-10-24T10:44:06.426Z,86.48
2022-10-24T10:45:06.413Z,86.58
2022-10-24T10:46:06.400Z,86.88
2022-10-24T10:47:06.386Z,86.28
2022-10-24T10:48:06.406Z,86.28
2022-10-24T10:49:06.378Z,87.19
2022-10-24T10:50:06.396Z,87.08
2022-10-24T10:51:08.302Z,86.99
2022-10-24T10:52:06.344Z,87.08
2022-10-24T10:53:06.345Z,86.02
2022-10-24T10:54:06.329Z,86.79
2022-10-24T10:55:06.319Z,86.88
2022-10-24T10:56:06.300Z,86.79
2022-10-24T10:57:06.288Z,86.99
2022-10-24T10:58:10.981Z,86.38
2022-10-24T10:59:07.270Z,86.58
2022-10-24T11:00:06.256Z,86.99
2022-10-24T11:01:06.383Z,86.28
2022-10-24T11:02:06.469Z,85.98
2022-10-24T11:03:06.223Z,86.48
2022-10-24T11:04:06.226Z,86.79
2022-10-24T11:05:06.202Z,86.18
2022-10-24T11:06:06.192Z,86.18
2022-10-24T11:07:06.211Z,85.98
2022-10-24T11:08:06.171Z,86.28
2022-10-24T11:09:06.177Z,85.78
2022-10-24T11:10:06.170Z,86.08
2022-10-24T11:11:06.138Z,86.08
2022-10-24T11:12:06.139Z,86.48
2022-10-24T11:13:06.117Z,86.79
2022-10-24T11:14:06.109Z,87.08
2022-10-24T11:15:06.210Z,87.08
2022-10-24T11:16:06.090Z,86.79
2022-10-24T11:17:06.087Z,87.08
2022-10-24T11:18:06.063Z,86.18
2022-10-24T11:19:06.083Z,86.68
2022-10-24T11:20:06.040Z,86.79
2022-10-24T11:21:06.062Z,86.88
2022-10-24T11:22:06.051Z,86.14
2022-10-24T11:23:06.045Z,86.44
2022-10-24T11:24:07.585Z,86.04
2022-10-24T11:25:05.992Z,86.14
2022-10-24T11:26:05.985Z,86.85
2022-10-24T11:27:05.980Z,85.74
2022-10-24T11:28:05.962Z,85.53
2022-10-24T11:29:05.964Z,85.64
2022-10-24T11:30:05.938Z,85.03
2022-10-24T11:31:05.929Z,85.44
2022-10-24T11:32:05.928Z,85.74
2022-10-24T11:33:05.917Z,85.24
2022-10-24T11:34:05.916Z,85.50
2022-10-24T11:35:05.895Z,85.90
2022-10-24T11:36:05.888Z,84.99
2022-10-24T11:37:05.877Z,85.24
2022-10-24T11:38:05.866Z,85.44
2022-10-24T11:39:05.872Z,85.39
2022-10-24T11:40:05.849Z,85.03
2022-10-24T11:41:05.822Z,85.33
2022-10-24T11:42:05.827Z,85.84
2022-10-24T11:43:05.800Z,85.33
2022-10-24T11:44:05.795Z,85.14
2022-10-24T11:45:05.794Z,85.84
2022-10-24T11:46:05.779Z,85.44
2022-10-24T11:47:06.672Z,85.74
2022-10-24T11:48:05.765Z,85.53
2022-10-24T11:49:05.750Z,85.24
2022-10-24T11:50:05.739Z,85.94
2022-10-24T11:51:05.730Z,85.44
2022-10-24T11:52:05.706Z,85.24
2022-10-24T11:53:05.706Z,85.53
2022-10-24T11:54:05.691Z,85.14
2022-10-24T11:55:05.701Z,85.14
2022-10-24T11:56:05.670Z,85.14
2022-10-24T11:57:05.679Z,85.24
2022-10-24T11:58:05.684Z,85.44
2022-10-24T11:59:05.637Z,85.14
2022-10-24T12:00:05.618Z,85.33
2022-10-24T12:01:05.669Z,85.44
2022-10-24T12:02:05.613Z,85.03
2022-10-24T12:03:05.604Z,84.94
2022-10-24T12:04:05.624Z,84.99
2022-10-24T12:05:05.572Z,84.83
2022-10-24T12:06:05.588Z,85.10
2022-10-24T12:07:05.556Z,85.19
2022-10-24T12:08:05.536Z,84.80
2022-10-24T12:09:05.551Z,84.59
2022-10-24T12:10:05.522Z,84.99
2022-10-24T12:11:05.533Z,84.49
2022-10-24T12:12:05.541Z,84.29
2022-10-24T12:13:05.502Z,84.19
2022-10-24T12:14:05.501Z,84.89
2022-10-24T12:15:05.488Z,85.10
2022-10-24T12:16:05.464Z,84.49
2022-10-24T12:17:05.435Z,83.99
2022-10-24T12:18:05.426Z,84.49
2022-10-24T12:19:05.416Z,84.09
2022-10-24T12:20:05.404Z,84.39
2022-10-24T12:21:05.418Z,84.39
2022-10-24T12:22:05.388Z,84.09
2022-10-24T12:23:05.383Z,83.59
2022-10-24T12:24:05.392Z,83.59
2022-10-24T12:25:05.356Z,83.79
2022-10-24T12:26:05.338Z,84.39
2022-10-24T12:27:05.351Z,84.59
2022-10-24T12:28:05.316Z,84.09
2022-10-24T12:29:05.316Z,84.39
2022-10-24T12:30:05.349Z,83.69
2022-10-24T12:31:05.290Z,84.99
2022-10-24T12:32:05.293Z,84.29
2022-10-24T12:33:05.267Z,83.79
2022-10-24T12:34:05.250Z,83.85
2022-10-24T12:35:29.314Z,84.25
2022-10-24T12:36:12.801Z,83.95
2022-10-24T12:37:13.927Z,84.15
2022-10-24T12:38:05.244Z,84.15
2022-10-24T12:39:12.760Z,84.05
2022-10-24T12:40:14.010Z,83.04
2022-10-24T12:41:05.184Z,83.25
2022-10-24T12:42:05.180Z,82.90
2022-10-24T12:43:05.196Z,83.01
2022-10-24T12:44:05.166Z,82.97
2022-10-24T12:45:05.183Z,82.90
2022-10-24T12:46:09.510Z,82.97
2022-10-24T12:47:06.115Z,81.76
2022-10-24T12:48:05.133Z,82.17
2022-10-24T12:49:05.109Z,82.06
2022-10-24T12:50:05.089Z,82.17
2022-10-24T12:51:05.064Z,81.67
2022-10-24T12:52:05.074Z,81.62
2022-10-24T12:53:05.045Z,81.76
2022-10-24T12:54:05.064Z,82.37
2022-10-24T12:55:05.028Z,82.46
2022-10-24T12:56:05.140Z,82.06